Time;durP1;ratioP1;P1;durP2;ratioP2;P2;SDS_P1;SDS_P2;PMS_P1;PMS_P2;Temp;Humidity;BMP_temperature;BMP_pressure;BME280_temperature;BME280_humidity;BME280_pressure;Samples;Min_cycle;Max_cycle;Signal;HPM_P1;HPM_P2
2022/02/02 00:01:48;;;;;;;;;6.00;4.00;;;;;;;;4995895;28;45382;-70
2022/02/02 00:04:19;;;;;;;;;3.50;3.00;;;;;;;;4994400;28;45299;-70
2022/02/02 00:06:57;;;;;;;;;4.50;3.00;;;;;;;;4994995;28;45597;-70
2022/02/02 00:09:23;;;;;;;;;2.25;2.00;;;;;;;;4994065;28;47387;-70
2022/02/02 00:17:00;;;;;;;;;4.75;4.75;;;;;;;;5033117;28;45430;-70
2022/02/02 00:22:01;;;;;;;;;4.75;3.00;;;;;;;;5032444;28;45504;-69
2022/02/02 00:26:58;;;;;;;;;3.25;3.25;;;;;;;;5066411;27;45426;-70
2022/02/02 00:29:30;;;;;;;;;2.50;2.50;;;;;;;;5073785;28;45633;-70
2022/02/02 00:32:04;;;;;;;;;2.25;2.25;;;;;;;;5080925;27;45373;-70
2022/02/02 00:34:31;;;;;;;;;2.00;2.00;;;;;;;;5077491;27;45248;-70
2022/02/02 00:36:57;;;;;;;;;2.00;2.00;;;;;;;;5075034;27;45463;-69
2022/02/02 00:39:26;;;;;;;;;2.50;2.50;;;;;;;;5073319;28;46154;-70
2022/02/02 00:41:56;;;;;;;;;3.75;2.00;;;;;;;;5072508;28;45222;-70
2022/02/02 00:44:21;;;;;;;;;4.00;3.00;;;;;;;;5073500;28;45893;-69
2022/02/02 00:46:47;;;;;;;;;3.50;3.50;;;;;;;;5075322;28;45382;-70
2022/02/02 00:49:13;;;;;;;;;2.00;2.00;;;;;;;;5076090;27;46977;-69
2022/02/02 00:54:07;;;;;;;;;5.00;1.50;;;;;;;;5074963;28;45284;-69
2022/02/02 00:56:33;;;;;;;;;2.75;1.75;;;;;;;;5073531;28;45542;-70
2022/02/02 00:58:58;;;;;;;;;3.00;2.25;;;;;;;;5073429;28;46627;-70
2022/02/02 01:01:24;;;;;;;;;6.00;2.00;;;;;;;;5074924;27;45316;-70
2022/02/02 01:03:49;;;;;;;;;2.00;1.75;;;;;;;;5073742;28;45370;-69
2022/02/02 01:06:18;;;;;;;;;3.00;3.00;;;;;;;;5075255;27;45323;-70
2022/02/02 01:29:57;;;;;;;;;1.00;1.00;;;;;;;;5073934;27;45466;-69
2022/02/02 01:32:22;;;;;;;;;2.25;2.00;;;;;;;;5082071;27;45406;-69
2022/02/02 01:34:47;;;;;;;;;4.50;2.00;;;;;;;;5075592;28;45375;-70
2022/02/02 01:37:16;;;;;;;;;4.00;1.75;;;;;;;;5073937;28;45562;-69
2022/02/02 01:39:41;;;;;;;;;3.50;1.00;;;;;;;;5073419;28;46093;-69
2022/02/02 01:42:10;;;;;;;;;1.75;1.75;;;;;;;;5074052;27;45313;-69
2022/02/02 01:44:47;;;;;;;;;3.25;2.00;;;;;;;;5076793;27;45515;-69
2022/02/02 02:06:40;;;;;;;;;4.00;2.00;;;;;;;;5071520;28;45392;-70
2022/02/02 02:09:05;;;;;;;;;2.00;0.25;;;;;;;;5073572;28;45364;-69
2022/02/02 02:11:30;;;;;;;;;2.75;2.75;;;;;;;;5081875;27;45470;-70
2022/02/02 02:14:37;;;;;;;;;1.50;1.00;;;;;;;;5073420;27;45494;-70
2022/02/02 02:16:46;;;;;;;;;2.00;1.00;;;;;;;;5071389;28;45274;-69
2022/02/02 02:19:11;;;;;;;;;3.00;2.50;;;;;;;;5074630;28;45458;-70
2022/02/02 02:21:37;;;;;;;;;2.75;1.75;;;;;;;;5073089;27;45464;-70
2022/02/02 02:24:02;;;;;;;;;1.00;1.00;;;;;;;;5071917;28;45572;-69
2022/02/02 02:26:29;;;;;;;;;2.00;2.00;;;;;;;;5072408;28;45511;-70
2022/02/02 02:29:10;;;;;;;;;2.50;1.75;;;;;;;;5073782;28;45388;-70
2022/02/02 02:39:32;;;;;;;;;2.00;2.00;;;;;;;;5075671;27;45809;-70
2022/02/02 02:55:54;;;;;;;;;1.00;1.00;;;;;;;;5071503;28;45444;-70
2022/02/02 02:58:35;;;;;;;;;1.00;1.00;;;;;;;;5076587;27;45490;-70
2022/02/02 03:01:24;;;;;;;;;2.00;2.00;;;;;;;;5071428;27;45684;-70
2022/02/02 03:57:56;;;;;;;;;3.00;1.50;;;;;;;;5028107;28;46007;-69
2022/02/02 04:08:06;;;;;;;;;1.50;1.50;;;;;;;;5032015;28;45516;-69
2022/02/02 04:10:32;;;;;;;;;1.75;1.75;;;;;;;;5018852;28;46482;-70
2022/02/02 04:13:09;;;;;;;;;0.00;0.00;;;;;;;;5030063;28;45531;-70
2022/02/02 04:16:56;;;;;;;;;1.00;1.00;;;;;;;;5071510;28;45561;-69
2022/02/02 05:04:50;;;;;;;;;1.00;1.00;;;;;;;;5076285;28;45478;-70
2022/02/02 05:09:58;;;;;;;;;1.00;1.00;;;;;;;;5074265;28;45407;-69
2022/02/02 05:24:19;;;;;;;;;1.00;1.00;;;;;;;;5064948;27;45369;-70
2022/02/02 05:27:33;;;;;;;;;1.00;1.00;;;;;;;;5073571;28;45465;-70
2022/02/02 05:45:32;;;;;;;;;3.50;1.00;;;;;;;;5073549;28;45419;-68
2022/02/02 05:53:20;;;;;;;;;0.50;0.00;;;;;;;;5059740;28;45673;-69
2022/02/02 05:55:45;;;;;;;;;1.00;1.00;;;;;;;;5075115;28;45538;-70
2022/02/02 05:58:11;;;;;;;;;0.00;0.00;;;;;;;;5074354;28;45291;-70
2022/02/02 06:00:37;;;;;;;;;0.00;0.00;;;;;;;;5071242;27;45667;-69
2022/02/02 06:03:07;;;;;;;;;2.00;1.00;;;;;;;;5073449;28;45387;-70
2022/02/02 06:05:33;;;;;;;;;2.00;1.50;;;;;;;;5071479;28;45537;-69
2022/02/02 06:07:58;;;;;;;;;0.50;0.50;;;;;;;;5073746;28;45331;-69
2022/02/02 06:10:25;;;;;;;;;1.75;1.00;;;;;;;;5076933;27;45372;-70
2022/02/02 06:12:51;;;;;;;;;0.25;0.25;;;;;;;;5075355;27;45501;-69
2022/02/02 06:15:18;;;;;;;;;0.25;0.00;;;;;;;;5073419;27;45537;-69
2022/02/02 06:17:51;;;;;;;;;1.00;0.00;;;;;;;;5072184;27;45573;-69
2022/02/02 06:20:16;;;;;;;;;3.00;1.00;;;;;;;;5073112;28;45882;-69
2022/02/02 06:22:54;;;;;;;;;2.00;0.75;;;;;;;;5075295;28;45309;-70
2022/02/02 06:25:21;;;;;;;;;0.33;0.00;;;;;;;;5073491;28;45530;-69
2022/02/02 06:27:51;;;;;;;;;0.00;0.00;;;;;;;;5071805;28;45474;-70
2022/02/02 06:30:17;;;;;;;;;0.00;0.00;;;;;;;;5072083;28;45699;-69
2022/02/02 06:32:47;;;;;;;;;1.33;1.33;;;;;;;;5071998;28;45343;-70
2022/02/02 06:35:14;;;;;;;;;0.25;0.25;;;;;;;;5071522;28;47348;-69
2022/02/02 06:37:41;;;;;;;;;0.67;0.33;;;;;;;;5076755;27;45313;-69
2022/02/02 06:40:06;;;;;;;;;0.00;0.00;;;;;;;;5071936;28;45414;-69
2022/02/02 06:42:33;;;;;;;;;0.67;0.67;;;;;;;;5075346;27;45443;-70
2022/02/02 06:44:59;;;;;;;;;1.00;0.00;;;;;;;;5080709;27;45455;-69
2022/02/02 06:47:25;;;;;;;;;1.50;1.50;;;;;;;;5070708;28;46155;-69
2022/02/02 06:49:51;;;;;;;;;2.50;0.00;;;;;;;;5075252;28;45378;-70
2022/02/02 06:52:24;;;;;;;;;0.00;0.00;;;;;;;;5076846;28;45566;-70
2022/02/02 06:54:53;;;;;;;;;1.25;1.25;;;;;;;;5074939;28;47223;-69
2022/02/02 06:57:47;;;;;;;;;1.25;1.25;;;;;;;;5075946;28;45282;-69
2022/02/02 07:00:40;;;;;;;;;2.25;1.25;;;;;;;;5075322;28;45293;-70
2022/02/02 07:03:45;;;;;;;;;1.00;0.00;;;;;;;;5076307;28;45510;-69
2022/02/02 07:06:27;;;;;;;;;0.00;0.00;;;;;;;;5076080;28;46438;-69
2022/02/02 07:09:16;;;;;;;;;0.75;0.75;;;;;;;;5076617;28;45625;-68
2022/02/02 07:20:12;;;;;;;;;1.25;0.00;;;;;;;;5075890;27;45445;-69
2022/02/02 07:23:04;;;;;;;;;0.50;0.00;;;;;;;;5074471;27;45552;-71
2022/02/02 07:25:44;;;;;;;;;0.00;0.00;;;;;;;;5076764;27;45439;-70
2022/02/02 07:28:15;;;;;;;;;1.00;1.00;;;;;;;;5078618;27;46403;-69
2022/02/02 07:33:13;;;;;;;;;0.00;0.00;;;;;;;;5078555;27;45417;-70
2022/02/02 07:35:52;;;;;;;;;2.50;0.50;;;;;;;;5076615;27;45586;-69
2022/02/02 07:38:20;;;;;;;;;1.00;1.00;;;;;;;;5060827;28;46047;-69
2022/02/02 07:40:47;;;;;;;;;0.75;0.50;;;;;;;;5072705;28;45365;-69
2022/02/02 07:43:20;;;;;;;;;0.00;0.00;;;;;;;;5073842;27;45463;-69
2022/02/02 07:45:47;;;;;;;;;0.00;0.00;;;;;;;;5076048;27;45544;-67
2022/02/02 07:48:12;;;;;;;;;1.00;0.00;;;;;;;;5082373;27;46631;-68
2022/02/02 07:50:37;;;;;;;;;0.25;0.00;;;;;;;;5076484;28;45495;-68
2022/02/02 07:53:09;;;;;;;;;0.75;0.00;;;;;;;;5075631;28;45362;-69
2022/02/02 07:55:36;;;;;;;;;0.00;0.00;;;;;;;;5070518;28;45437;-70
2022/02/02 07:58:02;;;;;;;;;0.00;0.00;;;;;;;;5069962;27;47590;-70
2022/02/02 08:00:27;;;;;;;;;0.67;0.67;;;;;;;;5068928;28;45466;-70
2022/02/02 08:05:19;;;;;;;;;0.00;0.00;;;;;;;;5061714;28;45379;-69
2022/02/02 08:07:55;;;;;;;;;1.00;1.00;;;;;;;;5076886;27;46751;-70
2022/02/02 08:10:22;;;;;;;;;0.00;0.00;;;;;;;;5075806;28;45309;-71
2022/02/02 08:12:55;;;;;;;;;0.00;0.00;;;;;;;;5071302;28;45367;-70
2022/02/02 08:15:21;;;;;;;;;1.33;0.00;;;;;;;;5073246;27;45539;-70
2022/02/02 08:17:49;;;;;;;;;0.00;0.00;;;;;;;;5073698;28;45845;-70
2022/02/02 08:20:14;;;;;;;;;1.00;1.00;;;;;;;;5080505;27;45861;-70
2022/02/02 08:22:41;;;;;;;;;0.00;0.00;;;;;;;;5077120;27;45313;-70
2022/02/02 08:25:07;;;;;;;;;0.00;0.00;;;;;;;;5075835;28;45413;-70
2022/02/02 08:27:38;;;;;;;;;0.00;0.00;;;;;;;;5079056;27;45445;-70
2022/02/02 08:30:06;;;;;;;;;1.00;0.00;;;;;;;;5083404;27;45360;-69
2022/02/02 08:32:33;;;;;;;;;0.75;0.00;;;;;;;;5075145;28;45329;-68
2022/02/02 08:35:00;;;;;;;;;1.33;0.00;;;;;;;;5075362;27;45217;-69
2022/02/02 08:37:31;;;;;;;;;0.00;0.00;;;;;;;;5075686;27;46385;-67
2022/02/02 08:40:11;;;;;;;;;0.00;0.00;;;;;;;;5073031;28;45537;-67
2022/02/02 08:42:37;;;;;;;;;0.00;0.00;;;;;;;;5075810;27;45386;-68
2022/02/02 08:45:22;;;;;;;;;0.00;0.00;;;;;;;;5073294;28;45463;-67
2022/02/02 08:47:54;;;;;;;;;0.00;0.00;;;;;;;;5073061;28;46115;-67
2022/02/02 08:50:27;;;;;;;;;1.00;0.33;;;;;;;;5073297;28;45657;-67
2022/02/02 08:52:56;;;;;;;;;0.00;0.00;;;;;;;;5076698;27;45300;-68
2022/02/02 08:55:38;;;;;;;;;0.00;0.00;;;;;;;;5076668;27;45443;-68
2022/02/02 08:58:20;;;;;;;;;0.00;0.00;;;;;;;;5074419;28;46364;-68
2022/02/02 09:00:48;;;;;;;;;0.00;0.00;;;;;;;;5072539;27;45307;-68
2022/02/02 09:05:57;;;;;;;;;2.00;1.00;;;;;;;;5076092;27;45309;-68
2022/02/02 09:08:28;;;;;;;;;0.00;0.00;;;;;;;;5074282;28;46435;-68
2022/02/02 09:24:22;;;;;;;;;0.00;0.00;;;;;;;;5074932;28;45524;-68
2022/02/02 09:32:42;;;;;;;;;0.67;0.67;;;;;;;;5058392;27;45425;-68
2022/02/02 09:35:07;;;;;;;;;2.25;0.50;;;;;;;;5073367;28;45373;-68
2022/02/02 09:37:33;;;;;;;;;0.00;0.00;;;;;;;;5075985;28;45399;-68
2022/02/02 09:40:11;;;;;;;;;0.75;0.75;;;;;;;;5072201;28;46217;-68
2022/02/02 09:42:36;;;;;;;;;1.25;0.00;;;;;;;;5072389;27;45513;-68
2022/02/02 09:45:08;;;;;;;;;0.00;0.00;;;;;;;;5071279;28;45558;-68
2022/02/02 09:47:41;;;;;;;;;1.33;0.00;;;;;;;;5080783;27;46002;-68
2022/02/02 09:50:17;;;;;;;;;0.00;0.00;;;;;;;;5073769;27;47223;-68
2022/02/02 09:52:50;;;;;;;;;0.00;0.00;;;;;;;;5071959;28;45371;-68
2022/02/02 09:55:31;;;;;;;;;2.00;0.00;;;;;;;;5075351;27;45206;-67
2022/02/02 10:05:59;;;;;;;;;0.00;0.00;;;;;;;;5073653;28;45589;-68
2022/02/02 10:08:55;;;;;;;;;0.00;0.00;;;;;;;;5071071;28;45559;-68
2022/02/02 10:14:17;;;;;;;;;1.67;1.00;;;;;;;;5073480;28;45546;-68
2022/02/02 10:16:44;;;;;;;;;0.00;0.00;;;;;;;;5071969;27;45352;-69
2022/02/02 10:19:13;;;;;;;;;0.00;0.00;;;;;;;;5074045;28;45578;-67
2022/02/02 10:21:38;;;;;;;;;0.00;0.00;;;;;;;;5074194;27;47521;-67
2022/02/02 10:24:04;;;;;;;;;0.00;0.00;;;;;;;;5071643;28;45449;-68
2022/02/02 10:26:29;;;;;;;;;0.33;0.00;;;;;;;;5073303;28;48709;-68
2022/02/02 10:28:54;;;;;;;;;0.00;0.00;;;;;;;;5073428;28;45504;-68
2022/02/02 10:31:20;;;;;;;;;0.00;0.00;;;;;;;;5075158;28;45552;-68
2022/02/02 10:33:45;;;;;;;;;0.33;0.00;;;;;;;;5072995;27;45461;-68
2022/02/02 10:36:20;;;;;;;;;0.00;0.00;;;;;;;;5079444;27;45541;-67
2022/02/02 10:39:14;;;;;;;;;0.67;0.67;;;;;;;;5070937;28;45443;-68
2022/02/02 10:41:49;;;;;;;;;2.67;0.00;;;;;;;;5071321;27;45834;-67
2022/02/02 10:44:17;;;;;;;;;0.00;0.00;;;;;;;;5057585;27;45848;-68
2022/02/02 10:47:13;;;;;;;;;0.00;0.00;;;;;;;;5074886;28;45643;-67
2022/02/02 10:49:38;;;;;;;;;0.00;0.00;;;;;;;;5073596;28;45406;-68
2022/02/02 10:57:11;;;;;;;;;1.00;0.00;;;;;;;;5072559;28;45553;-68
2022/02/02 11:07:54;;;;;;;;;0.75;0.00;;;;;;;;5071443;27;45950;-68
2022/02/02 11:10:19;;;;;;;;;0.00;0.00;;;;;;;;5074254;28;45784;-68
2022/02/02 11:12:46;;;;;;;;;0.00;0.00;;;;;;;;5072532;28;46418;-68
2022/02/02 11:15:20;;;;;;;;;0.00;0.00;;;;;;;;5072858;28;45573;-67
2022/02/02 11:17:46;;;;;;;;;0.00;0.00;;;;;;;;5074226;27;45469;-68
2022/02/02 11:20:13;;;;;;;;;0.00;0.00;;;;;;;;5072544;28;45538;-68
2022/02/02 11:22:47;;;;;;;;;1.33;0.00;;;;;;;;5075124;28;45528;-68
2022/02/02 11:25:12;;;;;;;;;0.00;0.00;;;;;;;;5073219;28;45434;-67
2022/02/02 11:27:42;;;;;;;;;0.00;0.00;;;;;;;;5070330;27;45543;-68
2022/02/02 11:30:22;;;;;;;;;0.00;0.00;;;;;;;;5072658;27;45502;-67
2022/02/02 11:32:47;;;;;;;;;0.00;0.00;;;;;;;;5071424;28;48614;-68
2022/02/02 11:35:49;;;;;;;;;2.25;0.00;;;;;;;;5071356;27;45443;-69
2022/02/02 11:38:21;;;;;;;;;1.00;0.00;;;;;;;;5074535;27;45374;-69
2022/02/02 11:41:12;;;;;;;;;0.00;0.00;;;;;;;;5076879;28;45477;-69
2022/02/02 11:44:05;;;;;;;;;0.00;0.00;;;;;;;;5073526;27;47481;-70
2022/02/02 11:49:20;;;;;;;;;0.00;0.00;;;;;;;;5076173;27;45253;-69
2022/02/02 11:51:46;;;;;;;;;0.00;0.00;;;;;;;;5073601;28;45467;-69
2022/02/02 11:54:16;;;;;;;;;0.00;0.00;;;;;;;;5073025;28;46302;-69
2022/02/02 11:57:01;;;;;;;;;0.00;0.00;;;;;;;;5075242;28;45472;-69
2022/02/02 12:02:30;;;;;;;;;0.00;0.00;;;;;;;;5060503;28;45431;-69
2022/02/02 12:11:01;;;;;;;;;0.00;0.00;;;;;;;;5013990;28;45493;-69
2022/02/02 12:57:39;;;;;;;;;0.33;0.33;;;;;;;;5013109;28;45507;-68
2022/02/02 13:00:23;;;;;;;;;1.00;0.00;;;;;;;;5013100;28;46227;-67
2022/02/02 13:02:48;;;;;;;;;0.00;0.00;;;;;;;;5013745;28;45507;-67
2022/02/02 13:05:15;;;;;;;;;0.00;0.00;;;;;;;;5013255;28;45456;-67
2022/02/02 13:07:42;;;;;;;;;0.00;0.00;;;;;;;;5014390;28;45271;-67
2022/02/02 13:10:09;;;;;;;;;0.00;0.00;;;;;;;;5013276;28;47514;-67
2022/02/02 13:12:39;;;;;;;;;0.00;0.00;;;;;;;;5012928;28;45604;-67
2022/02/02 13:17:53;;;;;;;;;0.00;0.00;;;;;;;;5014591;28;45438;-67
2022/02/02 13:20:28;;;;;;;;;0.00;0.00;;;;;;;;5002195;28;45534;-67
2022/02/02 13:23:00;;;;;;;;;0.00;0.00;;;;;;;;4998304;28;45447;-67
2022/02/02 13:25:30;;;;;;;;;0.00;0.00;;;;;;;;5012624;28;45386;-67
2022/02/02 13:27:58;;;;;;;;;0.00;0.00;;;;;;;;5035249;28;45508;-67
2022/02/02 13:30:30;;;;;;;;;0.00;0.00;;;;;;;;5072859;27;47484;-67
2022/02/02 13:32:57;;;;;;;;;0.67;0.33;;;;;;;;5072472;28;45517;-67
2022/02/02 13:35:35;;;;;;;;;1.00;1.00;;;;;;;;5075633;27;45391;-67
2022/02/02 13:38:16;;;;;;;;;0.67;0.67;;;;;;;;5074556;28;45395;-67
2022/02/02 13:42:38;;;;;;;;;0.50;0.50;;;;;;;;5076060;28;46252;-67
2022/02/02 13:43:51;;;;;;;;;0.00;0.00;;;;;;;;5075796;27;45542;-67
2022/02/02 13:48:53;;;;;;;;;0.33;0.33;;;;;;;;5077165;27;45604;-67
2022/02/02 13:51:39;;;;;;;;;1.00;1.00;;;;;;;;5072583;27;46383;-67
2022/02/02 13:59:22;;;;;;;;;0.00;0.00;;;;;;;;5073959;28;45401;-67
2022/02/02 14:26:08;;;;;;;;;0.67;0.67;;;;;;;;5071580;27;45311;-67
2022/02/02 14:31:23;;;;;;;;;0.75;0.75;;;;;;;;5075181;28;45527;-67
2022/02/02 14:33:51;;;;;;;;;0.00;0.00;;;;;;;;5072009;27;46249;-67
2022/02/02 14:36:20;;;;;;;;;1.00;1.00;;;;;;;;5076901;27;46432;-67
2022/02/02 14:38:54;;;;;;;;;0.33;0.33;;;;;;;;5075026;28;45474;-67
2022/02/02 14:41:33;;;;;;;;;1.00;1.00;;;;;;;;5060229;28;45280;-67
2022/02/02 14:44:12;;;;;;;;;1.00;1.00;;;;;;;;5074324;27;47498;-68
2022/02/02 14:49:20;;;;;;;;;1.00;1.00;;;;;;;;5071062;28;45621;-67
2022/02/02 14:51:56;;;;;;;;;0.00;0.00;;;;;;;;5072977;28;45339;-67
2022/02/02 14:54:45;;;;;;;;;1.50;1.00;;;;;;;;5071042;27;46620;-67
2022/02/02 15:32:35;;;;;;;;;1.00;1.00;;;;;;;;4939060;28;45540;-67
2022/02/02 15:35:01;;;;;;;;;0.00;0.00;;;;;;;;4936523;28;45375;-67
2022/02/02 15:37:31;;;;;;;;;1.25;1.00;;;;;;;;4921064;28;48035;-67
2022/02/02 15:40:03;;;;;;;;;1.00;1.00;;;;;;;;4937157;28;45428;-67
2022/02/02 15:58:17;;;;;;;;;0.00;0.00;;;;;;;;4995300;28;45537;-68
2022/02/02 16:03:31;;;;;;;;;0.00;0.00;;;;;;;;5000009;28;45602;-68
2022/02/02 16:06:06;;;;;;;;;0.00;0.00;;;;;;;;4994250;28;45605;-67
2022/02/02 16:08:31;;;;;;;;;0.00;0.00;;;;;;;;5005163;28;47444;-67
2022/02/02 16:13:32;;;;;;;;;1.00;1.00;;;;;;;;5075763;27;45363;-68
2022/02/02 16:16:03;;;;;;;;;1.00;1.00;;;;;;;;5073993;28;45592;-67
2022/02/02 16:18:46;;;;;;;;;1.00;1.00;;;;;;;;5075121;28;47086;-67
2022/02/02 16:37:37;;;;;;;;;1.00;1.00;;;;;;;;5018268;28;45438;-67
2022/02/02 16:40:05;;;;;;;;;1.00;1.00;;;;;;;;5016473;28;46594;-68
2022/02/02 16:45:16;;;;;;;;;0.00;0.00;;;;;;;;5023757;28;45353;-68
2022/02/02 16:47:41;;;;;;;;;0.00;0.00;;;;;;;;5017610;28;45529;-68
2022/02/02 16:50:09;;;;;;;;;1.00;1.00;;;;;;;;5012719;28;47086;-68
2022/02/02 16:52:35;;;;;;;;;0.00;0.00;;;;;;;;5019656;28;45536;-68
2022/02/02 16:55:05;;;;;;;;;1.00;1.00;;;;;;;;5018918;28;45465;-67
2022/02/02 16:57:54;;;;;;;;;1.00;0.00;;;;;;;;5017615;28;45470;-68
2022/02/02 17:33:14;;;;;;;;;0.00;0.00;;;;;;;;5007676;28;45295;-69
2022/02/02 17:38:32;;;;;;;;;0.00;0.00;;;;;;;;5056189;28;45428;-68
2022/02/02 17:41:16;;;;;;;;;2.00;0.00;;;;;;;;5073743;27;45469;-68
2022/02/02 18:21:23;;;;;;;;;4.00;1.67;;;;;;;;4983879;28;45584;-72
2022/02/02 18:26:59;;;;;;;;;0.00;0.00;;;;;;;;4948440;28;45831;-71
2022/02/02 18:34:32;;;;;;;;;1.00;0.67;;;;;;;;4938746;28;45325;-72
2022/02/02 18:37:37;;;;;;;;;0.00;0.00;;;;;;;;4962356;28;46484;-72
2022/02/02 18:55:49;;;;;;;;;1.00;1.00;;;;;;;;5015322;28;45457;-71
2022/02/02 19:39:03;;;;;;;;;0.67;0.33;;;;;;;;5064072;27;45373;-71
2022/02/02 19:52:27;;;;;;;;;2.33;0.00;;;;;;;;5076882;27;45362;-70
2022/02/02 20:06:04;;;;;;;;;1.00;0.00;;;;;;;;5033561;28;45606;-70
2022/02/02 20:11:03;;;;;;;;;0.25;0.25;;;;;;;;5032846;28;47056;-70
2022/02/02 20:13:29;;;;;;;;;0.75;0.75;;;;;;;;5038320;28;45488;-70
2022/02/02 20:15:55;;;;;;;;;2.00;0.00;;;;;;;;5034412;28;45448;-70
2022/02/02 20:18:20;;;;;;;;;0.00;0.00;;;;;;;;5039552;28;45567;-70
2022/02/02 20:20:46;;;;;;;;;0.33;0.00;;;;;;;;5034706;28;45746;-70
2022/02/02 20:23:13;;;;;;;;;2.00;0.00;;;;;;;;5015659;28;46911;-69
2022/02/02 20:25:41;;;;;;;;;1.75;0.00;;;;;;;;5034395;28;45527;-70
2022/02/02 20:28:07;;;;;;;;;0.00;0.00;;;;;;;;5032740;28;45478;-69
2022/02/02 20:30:36;;;;;;;;;1.00;1.00;;;;;;;;5031362;28;45377;-70
2022/02/02 20:33:02;;;;;;;;;1.00;1.00;;;;;;;;5032610;28;46346;-70
2022/02/02 20:35:27;;;;;;;;;1.50;1.50;;;;;;;;5033002;28;45532;-70
2022/02/02 20:37:52;;;;;;;;;0.00;0.00;;;;;;;;5034665;28;45374;-70
2022/02/02 20:40:18;;;;;;;;;1.00;1.00;;;;;;;;5038912;28;45460;-70
2022/02/02 21:06:47;;;;;;;;;1.00;1.00;;;;;;;;5074558;28;45340;-70
2022/02/02 21:09:49;;;;;;;;;1.25;1.25;;;;;;;;5074307;27;45478;-71
2022/02/02 21:14:57;;;;;;;;;2.67;1.00;;;;;;;;5074464;28;45314;-70
2022/02/02 21:17:26;;;;;;;;;1.00;1.00;;;;;;;;5070901;27;45444;-70
2022/02/02 21:22:17;;;;;;;;;2.00;0.00;;;;;;;;5074331;27;45265;-72
2022/02/02 21:29:37;;;;;;;;;0.67;0.67;;;;;;;;5080056;27;45316;-72
2022/02/02 21:32:03;;;;;;;;;1.00;1.00;;;;;;;;5074310;28;45528;-72
2022/02/02 21:34:28;;;;;;;;;0.00;0.00;;;;;;;;5075984;27;45825;-73
2022/02/02 21:37:01;;;;;;;;;0.33;0.33;;;;;;;;5073086;27;46240;-72
2022/02/02 21:39:28;;;;;;;;;2.00;1.00;;;;;;;;5073550;27;45523;-72
2022/02/02 21:41:54;;;;;;;;;2.00;0.50;;;;;;;;5073622;27;45493;-71
2022/02/02 21:44:19;;;;;;;;;0.00;0.00;;;;;;;;5064523;27;45500;-71
2022/02/02 21:46:45;;;;;;;;;1.00;1.00;;;;;;;;5066068;27;45478;-71
2022/02/02 21:49:16;;;;;;;;;0.00;0.00;;;;;;;;5070813;28;45515;-71
2022/02/02 21:51:53;;;;;;;;;3.50;0.50;;;;;;;;5073800;28;45582;-71
2022/02/02 21:54:18;;;;;;;;;4.25;2.50;;;;;;;;5072045;28;46647;-72
2022/02/02 21:56:43;;;;;;;;;0.00;0.00;;;;;;;;5068451;28;45296;-72
2022/02/02 21:59:08;;;;;;;;;1.25;1.25;;;;;;;;5072825;28;45562;-71
2022/02/02 22:01:34;;;;;;;;;0.50;0.50;;;;;;;;5073764;28;45395;-72
2022/02/02 22:03:59;;;;;;;;;1.00;1.00;;;;;;;;5068588;28;46667;-71
2022/02/02 22:06:24;;;;;;;;;1.00;1.00;;;;;;;;5071914;28;45477;-72
2022/02/02 22:08:49;;;;;;;;;0.50;0.50;;;;;;;;5072607;28;45485;-72
2022/02/02 22:11:15;;;;;;;;;2.00;2.00;;;;;;;;5073644;28;45423;-72
2022/02/02 22:13:44;;;;;;;;;1.00;1.00;;;;;;;;5075647;27;46284;-71
2022/02/02 22:16:12;;;;;;;;;2.00;1.00;;;;;;;;5074218;27;45352;-70
2022/02/02 22:18:39;;;;;;;;;1.00;1.00;;;;;;;;5071768;27;45444;-70
2022/02/02 22:21:05;;;;;;;;;0.00;0.00;;;;;;;;5067751;28;45494;-70
2022/02/02 22:23:30;;;;;;;;;0.75;0.75;;;;;;;;5068061;27;46128;-70
2022/02/02 22:25:57;;;;;;;;;0.50;0.50;;;;;;;;5074395;28;45571;-74
2022/02/02 22:28:23;;;;;;;;;1.00;1.00;;;;;;;;5072850;28;45531;-73
2022/02/02 22:30:48;;;;;;;;;1.00;1.00;;;;;;;;5073284;27;45691;-74
2022/02/02 22:33:13;;;;;;;;;1.50;1.00;;;;;;;;5070516;28;45503;-74
2022/02/02 22:35:38;;;;;;;;;3.50;0.50;;;;;;;;5060424;28;45403;-74
2022/02/02 22:38:04;;;;;;;;;2.00;0.25;;;;;;;;5058143;28;45502;-73
2022/02/02 22:40:29;;;;;;;;;1.50;1.50;;;;;;;;5060901;28;45370;-74
2022/02/02 22:42:54;;;;;;;;;2.00;2.00;;;;;;;;5063722;28;45504;-74
2022/02/02 22:45:20;;;;;;;;;1.75;1.00;;;;;;;;5060699;27;45339;-73
2022/02/02 22:47:47;;;;;;;;;1.00;1.00;;;;;;;;5057563;28;45245;-74
2022/02/02 22:50:14;;;;;;;;;1.75;1.75;;;;;;;;5059674;28;45484;-75
2022/02/02 22:52:41;;;;;;;;;4.25;1.00;;;;;;;;5055370;28;45667;-74
2022/02/02 22:55:10;;;;;;;;;1.75;1.75;;;;;;;;5067580;28;45486;-74
2022/02/02 22:57:36;;;;;;;;;2.33;1.00;;;;;;;;5063320;28;45363;-73
2022/02/02 23:00:03;;;;;;;;;2.00;2.00;;;;;;;;5070320;27;45474;-73
2022/02/02 23:05:02;;;;;;;;;2.00;1.00;;;;;;;;5069479;28;45526;-75
2022/02/02 23:07:30;;;;;;;;;1.25;1.25;;;;;;;;5065900;27;45223;-73
2022/02/02 23:09:57;;;;;;;;;1.00;1.00;;;;;;;;5067220;27;45342;-72
2022/02/02 23:12:25;;;;;;;;;0.50;0.50;;;;;;;;5063879;27;47808;-72
2022/02/02 23:14:50;;;;;;;;;1.25;1.25;;;;;;;;5064935;28;45312;-73
2022/02/02 23:17:17;;;;;;;;;3.25;2.00;;;;;;;;5062892;28;45296;-72
2022/02/02 23:19:45;;;;;;;;;2.00;0.00;;;;;;;;5068648;28;45231;-72
2022/02/02 23:22:14;;;;;;;;;2.00;0.50;;;;;;;;5069938;27;45483;-72
2022/02/02 23:24:42;;;;;;;;;2.00;1.00;;;;;;;;5068492;28;45438;-73
2022/02/02 23:27:10;;;;;;;;;1.00;1.00;;;;;;;;5066821;28;45333;-73
2022/02/02 23:29:36;;;;;;;;;1.00;1.00;;;;;;;;5069548;28;45544;-73
2022/02/02 23:32:02;;;;;;;;;1.00;1.00;;;;;;;;5071232;27;47098;-73
2022/02/02 23:34:27;;;;;;;;;1.00;1.00;;;;;;;;5076392;27;45353;-71
2022/02/02 23:36:54;;;;;;;;;0.00;0.00;;;;;;;;5074910;28;45492;-73
2022/02/02 23:39:21;;;;;;;;;1.00;1.00;;;;;;;;5074974;27;45400;-71
2022/02/02 23:44:31;;;;;;;;;2.50;1.50;;;;;;;;5062217;28;45320;-71
2022/02/02 23:46:56;;;;;;;;;3.00;3.00;;;;;;;;5077026;28;45253;-71
2022/02/02 23:49:30;;;;;;;;;1.00;1.00;;;;;;;;5076006;27;45217;-71
2022/02/02 23:51:57;;;;;;;;;2.00;1.00;;;;;;;;5074510;28;46236;-71
2022/02/02 23:54:24;;;;;;;;;1.33;1.00;;;;;;;;5074748;27;45580;-71
2022/02/02 23:57:01;;;;;;;;;1.00;1.00;;;;;;;;5075962;28;45347;-71
2022/02/02 23:59:45;;;;;;;;;1.00;1.00;;;;;;;;5084279;27;45359;-71
